To NAV CANADA Home Page Login to a new session Search on AWWS site Disclaimer Vers la page française équivalente Tips FAQ What's new on the site To the Forecasts and Observations / NOTAM section To "File a Flight Plan" website Publications and other links Update of the User's profile FIC Telephone Numbers My Weather Data Folder Route Weather Data Regional Weather Data Local Weather Data To the Forecasts and Observations / NOTAM section
Request Generated 10/19/2018 at 15:50:37 UTC . Weather information available at that time is displayed.

METAR/TAF

LONDON/ON    

METAR CYXU 191500Z 21009G16KT 15SM FEW210 SCT250 10/02 A3008 RMK CI1CI3 SLP193=
METAR CYXU 191400Z 22009KT 15SM SCT240 09/01 A3012 RMK CI4 SLP207=
METAR CYXU 191300Z 21008KT 15SM FEW230 SCT250 06/00 A3014 RMK CI1CI2 SLP215=

TAF CYXU 191138Z 1912/2012 22007KT P6SM SKC
BECMG 1912/1914 23010G20KT
FM191500 23010G20KT P6SM SCT150 BKN200
BECMG 1917/1919 23015G25KT
FM192100 23015G25KT P6SM OVC080
FM192300 23015G30KT P6SM -RA OVC040
FM200500 24015G25KT 3SM -RA BR OVC015
FM200900 28010G20KT 5SM -SHRA BR BKN020
RMK NXT FCST BY 191800Z=
Your time UTC time
Weather data provided by Environment Canada and NAV CANADA